Time;durP1;ratioP1;P1;durP2;ratioP2;P2;SDS_P1;SDS_P2;PMS_P1;PMS_P2;Temp;Humidity;BMP_temperature;BMP_pressure;BME280_temperature;BME280_humidity;BME280_pressure;Samples;Min_cycle;Max_cycle;Signal;HPM_P1;HPM_P2
2023/03/19 00:00:03;;;;;;;;;;;;;;;;;;5092713;28;19904;-59
2023/03/19 00:02:29;;;;;;;;;;;;;;;;;;5092149;28;20454;-59
2023/03/19 00:04:55;;;;;;;;;;;;;;;;;;5092861;28;19932;-60
2023/03/19 00:07:21;;;;;;;;;;;;;;;;;;5105344;22;19927;-67
2023/03/19 00:09:47;;;;;;;;;;;;;;;;;;5091563;28;19926;-68
2023/03/19 00:12:13;;;;;;;;;;;;;;;;;;5073421;28;19908;-67
2023/03/19 00:14:39;;;;;;;;;;;;;;;;;;5073080;28;20318;-67
2023/03/19 00:17:06;;;;;;;;;;;;;;;;;;5092057;28;20283;-65
2023/03/19 00:19:32;;;;;;;;;;;;;;;;;;5074141;28;19904;-65
2023/03/19 00:21:58;;;;;;;;;;;;;;;;;;5092194;28;19911;-66
2023/03/19 00:24:23;;;;;;;;;;;;;;;;;;5091656;28;19904;-65
2023/03/19 00:26:50;;;;;;;;;;;;;;;;;;5091760;28;19908;-66
2023/03/19 00:29:15;;;;;;;;;;;;;;;;;;5091686;28;20015;-65
2023/03/19 00:31:41;;;;;;;;;;;;;;;;;;5073407;28;19904;-66
2023/03/19 00:34:08;;;;;;;;;;;;;;;;;;5091207;28;19908;-66
2023/03/19 00:36:33;;;;;;;;;;;;;;;;;;5091543;28;19904;-66
2023/03/19 00:38:59;;;;;;;;;;;;;;;;;;5073244;28;20275;-66
2023/03/19 00:41:26;;;;;;;;;;;;;;;;;;5091285;28;19938;-67
2023/03/19 00:43:52;;;;;;;;;;;;;;;;;;5090507;28;19949;-67
2023/03/19 00:46:18;;;;;;;;;;;;;;;;;;5091211;28;20003;-65
2023/03/19 00:48:44;;;;;;;;;;;;;;;;;;5073277;28;19955;-66
2023/03/19 00:51:10;;;;;;;;;;;;;;;;;;5091273;28;20455;-65
2023/03/19 00:53:36;;;;;;;;;;;;;;;;;;5072878;28;19904;-66
2023/03/19 00:56:02;;;;;;;;;;;;;;;;;;5073008;28;20276;-66
2023/03/19 00:58:27;;;;;;;;;;;;;;;;;;5091270;28;19911;-65
2023/03/19 01:00:53;;;;;;;;;;;;;;;;;;5091253;28;20398;-65
2023/03/19 01:03:20;;;;;;;;;;;;;;;;;;5090819;28;19911;-65
2023/03/19 01:05:46;;;;;;;;;;;;;;;;;;5090756;28;20288;-65
2023/03/19 01:08:11;;;;;;;;;;;;;;;;;;5090900;28;19904;-65
2023/03/19 01:10:37;;;;;;;;;;;;;;;;;;5090953;28;19911;-66
2023/03/19 01:13:03;;;;;;;;;;;;;;;;;;5090579;28;19904;-65
2023/03/19 01:15:38;;;;;;;;;;;;;;;;;;5090747;28;19908;-66
2023/03/19 01:18:04;;;;;;;;;;;;;;;;;;5090867;28;19904;-66
2023/03/19 01:20:30;;;;;;;;;;;;;;;;;;5090834;28;20015;-66
2023/03/19 01:22:56;;;;;;;;;;;;;;;;;;5090793;28;20279;-67
2023/03/19 01:25:22;;;;;;;;;;;;;;;;;;5090743;28;19957;-65
2023/03/19 01:27:48;;;;;;;;;;;;;;;;;;5090703;28;20352;-65
2023/03/19 01:30:14;;;;;;;;;;;;;;;;;;5090802;28;19942;-65
2023/03/19 01:32:40;;;;;;;;;;;;;;;;;;5090686;28;19915;-65
2023/03/19 01:35:06;;;;;;;;;;;;;;;;;;5090525;28;19908;-65
2023/03/19 01:37:32;;;;;;;;;;;;;;;;;;5072558;28;19904;-65
2023/03/19 01:39:58;;;;;;;;;;;;;;;;;;5073035;28;19904;-65
2023/03/19 01:42:24;;;;;;;;;;;;;;;;;;5091426;28;19948;-64
2023/03/19 01:44:50;;;;;;;;;;;;;;;;;;5090454;28;19904;-66
2023/03/19 01:47:16;;;;;;;;;;;;;;;;;;5072476;28;19911;-66
2023/03/19 01:49:44;;;;;;;;;;;;;;;;;;5072327;28;19904;-66
2023/03/19 01:52:10;;;;;;;;;;;;;;;;;;5090821;28;19912;-66
2023/03/19 01:54:36;;;;;;;;;;;;;;;;;;5090890;28;19915;-66
2023/03/19 01:57:02;;;;;;;;;;;;;;;;;;5094442;28;19919;-67
2023/03/19 01:59:28;;;;;;;;;;;;;;;;;;5094538;28;19910;-66
2023/03/19 02:01:54;;;;;;;;;;;;;;;;;;5094432;28;20352;-66
2023/03/19 02:04:19;;;;;;;;;;;;;;;;;;5094242;28;19940;-66
2023/03/19 02:06:45;;;;;;;;;;;;;;;;;;5094218;28;20336;-65
2023/03/19 02:09:12;;;;;;;;;;;;;;;;;;5094639;28;19916;-71
2023/03/19 02:11:38;;;;;;;;;;;;;;;;;;5094375;28;19911;-66
2023/03/19 02:14:04;;;;;;;;;;;;;;;;;;5094274;28;19908;-66
2023/03/19 02:16:30;;;;;;;;;;;;;;;;;;5094442;28;19904;-65
2023/03/19 02:18:56;;;;;;;;;;;;;;;;;;5076282;28;20371;-66
2023/03/19 02:21:22;;;;;;;;;;;;;;;;;;5094572;28;19911;-66
2023/03/19 02:23:48;;;;;;;;;;;;;;;;;;5091749;28;19914;-65
2023/03/19 02:26:14;;;;;;;;;;;;;;;;;;5093959;28;20308;-66
2023/03/19 02:28:41;;;;;;;;;;;;;;;;;;5093865;28;19952;-66
2023/03/19 02:31:07;;;;;;;;;;;;;;;;;;5094106;28;20257;-65
2023/03/19 02:33:33;;;;;;;;;;;;;;;;;;5093905;28;19915;-65
2023/03/19 02:35:59;;;;;;;;;;;;;;;;;;5093675;28;20312;-65
2023/03/19 02:38:25;;;;;;;;;;;;;;;;;;5076055;28;19958;-65
2023/03/19 02:40:51;;;;;;;;;;;;;;;;;;5094070;28;19991;-65
2023/03/19 02:43:16;;;;;;;;;;;;;;;;;;5093576;28;20006;-64
2023/03/19 02:45:42;;;;;;;;;;;;;;;;;;5093704;28;19911;-66
2023/03/19 02:48:08;;;;;;;;;;;;;;;;;;5093767;28;19904;-66
2023/03/19 02:50:34;;;;;;;;;;;;;;;;;;5093748;28;19908;-67
2023/03/19 02:53:00;;;;;;;;;;;;;;;;;;5075315;28;20379;-65
2023/03/19 02:55:26;;;;;;;;;;;;;;;;;;5075224;28;20029;-67
2023/03/19 02:57:53;;;;;;;;;;;;;;;;;;5093261;28;19972;-65
2023/03/19 03:00:19;;;;;;;;;;;;;;;;;;5075439;28;19905;-65
2023/03/19 03:02:45;;;;;;;;;;;;;;;;;;5075437;28;19908;-65
2023/03/19 03:05:12;;;;;;;;;;;;;;;;;;5092664;28;19904;-67
2023/03/19 03:07:39;;;;;;;;;;;;;;;;;;5093078;28;19918;-64
2023/03/19 03:10:05;;;;;;;;;;;;;;;;;;5075092;28;19916;-66
2023/03/19 03:12:31;;;;;;;;;;;;;;;;;;5075123;28;19904;-65
2023/03/19 03:14:57;;;;;;;;;;;;;;;;;;5092894;28;19961;-65
2023/03/19 03:17:23;;;;;;;;;;;;;;;;;;5092870;28;19904;-65
2023/03/19 03:19:49;;;;;;;;;;;;;;;;;;5074835;28;19973;-65
2023/03/19 03:22:14;;;;;;;;;;;;;;;;;;5074947;28;20347;-66
2023/03/19 03:24:40;;;;;;;;;;;;;;;;;;5092827;28;19911;-66
2023/03/19 03:27:07;;;;;;;;;;;;;;;;;;5092667;28;20021;-65
2023/03/19 03:29:32;;;;;;;;;;;;;;;;;;5074967;28;19947;-65
2023/03/19 03:31:58;;;;;;;;;;;;;;;;;;5074800;28;19911;-65
2023/03/19 03:34:24;;;;;;;;;;;;;;;;;;5092530;28;20364;-67
2023/03/19 03:36:50;;;;;;;;;;;;;;;;;;5092705;28;19904;-66
2023/03/19 03:39:17;;;;;;;;;;;;;;;;;;5075745;28;20101;-66
2023/03/19 03:41:43;;;;;;;;;;;;;;;;;;5075779;28;19903;-66
2023/03/19 03:44:09;;;;;;;;;;;;;;;;;;5093466;28;19904;-65
2023/03/19 03:46:35;;;;;;;;;;;;;;;;;;5093811;28;20299;-66
2023/03/19 03:49:01;;;;;;;;;;;;;;;;;;5093962;28;19968;-66
2023/03/19 03:51:27;;;;;;;;;;;;;;;;;;5093442;28;19904;-65
2023/03/19 03:53:53;;;;;;;;;;;;;;;;;;5074491;28;19908;-66
2023/03/19 03:56:19;;;;;;;;;;;;;;;;;;5093470;28;19911;-65
2023/03/19 03:58:45;;;;;;;;;;;;;;;;;;5074878;28;19904;-67
2023/03/19 04:01:10;;;;;;;;;;;;;;;;;;5092150;28;20046;-66
2023/03/19 04:03:37;;;;;;;;;;;;;;;;;;5091849;28;19900;-66
2023/03/19 04:06:03;;;;;;;;;;;;;;;;;;5091882;28;19915;-67
2023/03/19 04:08:29;;;;;;;;;;;;;;;;;;5092156;28;19913;-66
2023/03/19 04:10:55;;;;;;;;;;;;;;;;;;5074506;28;20364;-66
2023/03/19 04:13:21;;;;;;;;;;;;;;;;;;5092532;28;20049;-66
2023/03/19 04:15:47;;;;;;;;;;;;;;;;;;5073471;28;19908;-65
2023/03/19 04:18:13;;;;;;;;;;;;;;;;;;5090921;28;19911;-66
2023/03/19 04:20:40;;;;;;;;;;;;;;;;;;5091820;28;19908;-66
2023/03/19 04:23:06;;;;;;;;;;;;;;;;;;5073590;28;19994;-66
2023/03/19 04:25:32;;;;;;;;;;;;;;;;;;5092377;28;20330;-66
2023/03/19 04:27:57;;;;;;;;;;;;;;;;;;5092454;28;19904;-64
2023/03/19 04:30:23;;;;;;;;;;;;;;;;;;5091716;28;19911;-65
2023/03/19 04:32:49;;;;;;;;;;;;;;;;;;5091945;28;19907;-65
2023/03/19 04:35:17;;;;;;;;;;;;;;;;;;5073209;28;19907;-65
2023/03/19 04:37:47;;;;;;;;;;;;;;;;;;5091440;28;19956;-66
2023/03/19 04:40:13;;;;;;;;;;;;;;;;;;5091339;28;20242;-66
2023/03/19 04:42:38;;;;;;;;;;;;;;;;;;5091260;28;19904;-66
2023/03/19 04:45:04;;;;;;;;;;;;;;;;;;5072844;28;19908;-65
2023/03/19 04:47:30;;;;;;;;;;;;;;;;;;5091135;28;19980;-66
2023/03/19 04:49:56;;;;;;;;;;;;;;;;;;5091270;28;20080;-66
2023/03/19 04:52:22;;;;;;;;;;;;;;;;;;5091051;28;19911;-65
2023/03/19 04:54:48;;;;;;;;;;;;;;;;;;5090847;28;19908;-66
2023/03/19 04:57:14;;;;;;;;;;;;;;;;;;5091108;28;19926;-67
2023/03/19 04:59:40;;;;;;;;;;;;;;;;;;5091155;28;19999;-66
2023/03/19 05:02:06;;;;;;;;;;;;;;;;;;5091091;28;19915;-66
2023/03/19 05:04:32;;;;;;;;;;;;;;;;;;5090777;28;19999;-66
2023/03/19 05:06:58;;;;;;;;;;;;;;;;;;5090917;28;19947;-65
2023/03/19 05:09:24;;;;;;;;;;;;;;;;;;5091059;28;20420;-67
2023/03/19 05:11:50;;;;;;;;;;;;;;;;;;5090870;28;19904;-67
2023/03/19 05:14:16;;;;;;;;;;;;;;;;;;5090577;28;20425;-66
2023/03/19 05:16:42;;;;;;;;;;;;;;;;;;5090674;28;19969;-65
2023/03/19 05:19:09;;;;;;;;;;;;;;;;;;5090997;28;19930;-66
2023/03/19 05:21:35;;;;;;;;;;;;;;;;;;5072773;28;19908;-66
2023/03/19 05:24:01;;;;;;;;;;;;;;;;;;5072307;28;19904;-66
2023/03/19 05:26:26;;;;;;;;;;;;;;;;;;5072455;28;20261;-67
2023/03/19 05:28:52;;;;;;;;;;;;;;;;;;5073802;28;19996;-66
2023/03/19 05:31:18;;;;;;;;;;;;;;;;;;5095138;28;19957;-67
2023/03/19 05:33:44;;;;;;;;;;;;;;;;;;5076425;28;20480;-67
2023/03/19 05:36:11;;;;;;;;;;;;;;;;;;5094782;28;19904;-66
2023/03/19 05:38:38;;;;;;;;;;;;;;;;;;5095046;28;19904;-67
2023/03/19 05:41:04;;;;;;;;;;;;;;;;;;5094954;28;19972;-65
2023/03/19 05:43:29;;;;;;;;;;;;;;;;;;5094516;28;20379;-66
2023/03/19 05:45:56;;;;;;;;;;;;;;;;;;5076277;28;20365;-66
2023/03/19 05:48:22;;;;;;;;;;;;;;;;;;5094709;28;19911;-66
2023/03/19 05:50:48;;;;;;;;;;;;;;;;;;5076402;28;20328;-66
2023/03/19 05:53:14;;;;;;;;;;;;;;;;;;5094369;28;19950;-65
2023/03/19 05:55:40;;;;;;;;;;;;;;;;;;5094545;28;19957;-66
2023/03/19 05:58:06;;;;;;;;;;;;;;;;;;5094627;28;19904;-66
2023/03/19 06:00:32;;;;;;;;;;;;;;;;;;5094416;28;19914;-66
2023/03/19 06:02:58;;;;;;;;;;;;;;;;;;5094345;28;19904;-67
2023/03/19 06:05:24;;;;;;;;;;;;;;;;;;5075867;28;19923;-66
2023/03/19 06:07:50;;;;;;;;;;;;;;;;;;5099755;22;20373;-62
2023/03/19 06:10:16;;;;;;;;;;;;;;;;;;5095670;28;19962;-62
2023/03/19 06:12:42;;;;;;;;;;;;;;;;;;5095467;28;19931;-64
2023/03/19 06:15:08;;;;;;;;;;;;;;;;;;5095435;28;20279;-64
2023/03/19 06:17:33;;;;;;;;;;;;;;;;;;5095412;28;20147;-64
2023/03/19 06:20:00;;;;;;;;;;;;;;;;;;5095688;28;20279;-64
2023/03/19 06:22:25;;;;;;;;;;;;;;;;;;5077593;28;19935;-62
2023/03/19 06:24:51;;;;;;;;;;;;;;;;;;5095326;28;19904;-64
2023/03/19 06:27:17;;;;;;;;;;;;;;;;;;5095494;28;19943;-64
2023/03/19 06:29:43;;;;;;;;;;;;;;;;;;5073609;28;19908;-65
2023/03/19 06:32:09;;;;;;;;;;;;;;;;;;5095192;28;19948;-64
2023/03/19 06:34:35;;;;;;;;;;;;;;;;;;5094748;28;19915;-63
2023/03/19 06:37:01;;;;;;;;;;;;;;;;;;5094985;28;19904;-64
2023/03/19 06:39:27;;;;;;;;;;;;;;;;;;5077120;28;19911;-63
2023/03/19 06:41:53;;;;;;;;;;;;;;;;;;5094421;28;19958;-67
2023/03/19 06:44:19;;;;;;;;;;;;;;;;;;5093719;28;19911;-64
2023/03/19 06:46:45;;;;;;;;;;;;;;;;;;5094369;28;19907;-65
2023/03/19 06:49:10;;;;;;;;;;;;;;;;;;5076617;28;19908;-65
2023/03/19 06:51:36;;;;;;;;;;;;;;;;;;5094837;28;20290;-64
2023/03/19 06:54:02;;;;;;;;;;;;;;;;;;5093081;28;19908;-65
2023/03/19 06:56:28;;;;;;;;;;;;;;;;;;5094828;28;20261;-65
2023/03/19 06:58:54;;;;;;;;;;;;;;;;;;5094721;28;19900;-63
2023/03/19 07:01:20;;;;;;;;;;;;;;;;;;5093799;28;19904;-65
2023/03/19 07:03:46;;;;;;;;;;;;;;;;;;5094302;28;19956;-64
2023/03/19 07:06:12;;;;;;;;;;;;;;;;;;5076221;28;19911;-65
2023/03/19 07:08:38;;;;;;;;;;;;;;;;;;5094737;28;20575;-64
2023/03/19 07:11:04;;;;;;;;;;;;;;;;;;5094558;28;20364;-65
2023/03/19 07:13:30;;;;;;;;;;;;;;;;;;5094188;28;20303;-64
2023/03/19 07:15:56;;;;;;;;;;;;;;;;;;5076068;28;19915;-65
2023/03/19 07:18:22;;;;;;;;;;;;;;;;;;5094452;28;19904;-65
2023/03/19 07:20:48;;;;;;;;;;;;;;;;;;5094466;28;19907;-63
2023/03/19 07:23:14;;;;;;;;;;;;;;;;;;5075864;28;19908;-64
2023/03/19 07:25:40;;;;;;;;;;;;;;;;;;5076151;28;19910;-64
2023/03/19 07:28:06;;;;;;;;;;;;;;;;;;5094074;28;19908;-66
2023/03/19 07:30:32;;;;;;;;;;;;;;;;;;5094336;28;19908;-65
2023/03/19 07:32:57;;;;;;;;;;;;;;;;;;5094146;28;19911;-63
2023/03/19 07:35:23;;;;;;;;;;;;;;;;;;5076066;28;19931;-65
2023/03/19 07:37:49;;;;;;;;;;;;;;;;;;5094112;28;20601;-64
2023/03/19 07:40:15;;;;;;;;;;;;;;;;;;5075971;28;19904;-65
2023/03/19 07:42:41;;;;;;;;;;;;;;;;;;5075861;28;19904;-65
2023/03/19 07:45:07;;;;;;;;;;;;;;;;;;5075736;28;19951;-64
2023/03/19 07:47:33;;;;;;;;;;;;;;;;;;5093895;28;19908;-62
2023/03/19 07:49:59;;;;;;;;;;;;;;;;;;5075805;28;19904;-64
2023/03/19 07:52:25;;;;;;;;;;;;;;;;;;5093717;28;19904;-65
2023/03/19 07:54:51;;;;;;;;;;;;;;;;;;5075331;28;20423;-65
2023/03/19 07:57:18;;;;;;;;;;;;;;;;;;5075202;28;19955;-64
2023/03/19 07:59:44;;;;;;;;;;;;;;;;;;5093639;28;19915;-64
2023/03/19 08:02:10;;;;;;;;;;;;;;;;;;5093615;28;19949;-64
2023/03/19 08:04:36;;;;;;;;;;;;;;;;;;5093292;28;19912;-64
2023/03/19 08:07:02;;;;;;;;;;;;;;;;;;5093522;28;20351;-64
2023/03/19 08:09:28;;;;;;;;;;;;;;;;;;5093458;28;19911;-65
2023/03/19 08:11:54;;;;;;;;;;;;;;;;;;5093324;28;20048;-63
2023/03/19 08:14:21;;;;;;;;;;;;;;;;;;5091591;28;19915;-64
2023/03/19 08:16:47;;;;;;;;;;;;;;;;;;5093173;28;19904;-65
2023/03/19 08:19:13;;;;;;;;;;;;;;;;;;5093570;28;19957;-64
2023/03/19 08:21:39;;;;;;;;;;;;;;;;;;5092437;28;20351;-64
2023/03/19 08:24:04;;;;;;;;;;;;;;;;;;5087955;28;19915;-64
2023/03/19 08:26:31;;;;;;;;;;;;;;;;;;5091738;28;20271;-63
2023/03/19 08:28:57;;;;;;;;;;;;;;;;;;5095658;28;19965;-64
2023/03/19 08:31:23;;;;;;;;;;;;;;;;;;5093196;28;20050;-65
2023/03/19 08:33:49;;;;;;;;;;;;;;;;;;5093021;28;19904;-64
2023/03/19 08:36:15;;;;;;;;;;;;;;;;;;5091937;28;19915;-64
2023/03/19 08:38:41;;;;;;;;;;;;;;;;;;5091789;28;19904;-63
2023/03/19 08:41:07;;;;;;;;;;;;;;;;;;5092793;28;19910;-62
2023/03/19 08:43:33;;;;;;;;;;;;;;;;;;5091587;28;19904;-64
2023/03/19 08:45:59;;;;;;;;;;;;;;;;;;5093258;28;20257;-64
2023/03/19 08:48:25;;;;;;;;;;;;;;;;;;5091585;28;19911;-64
2023/03/19 08:50:51;;;;;;;;;;;;;;;;;;5092599;28;19912;-64
2023/03/19 08:53:17;;;;;;;;;;;;;;;;;;5091992;28;19995;-64
2023/03/19 08:55:43;;;;;;;;;;;;;;;;;;5092312;28;20360;-61
2023/03/19 08:58:09;;;;;;;;;;;;;;;;;;5092599;28;19956;-63
2023/03/19 09:00:35;;;;;;;;;;;;;;;;;;5088445;28;20388;-64
2023/03/19 09:03:01;;;;;;;;;;;;;;;;;;5092091;28;19904;-63
2023/03/19 09:05:27;;;;;;;;;;;;;;;;;;5092358;28;19912;-63
2023/03/19 09:07:53;;;;;;;;;;;;;;;;;;5074223;28;19912;-62
2023/03/19 09:10:18;;;;;;;;;;;;;;;;;;5074474;28;19908;-63
2023/03/19 09:12:45;;;;;;;;;;;;;;;;;;5092194;28;19927;-64
2023/03/19 09:15:10;;;;;;;;;;;;;;;;;;5091913;28;19908;-62
2023/03/19 09:17:36;;;;;;;;;;;;;;;;;;5092524;28;20045;-62
2023/03/19 09:20:03;;;;;;;;;;;;;;;;;;5091077;28;20374;-63
2023/03/19 09:22:30;;;;;;;;;;;;;;;;;;5092785;28;19910;-63
2023/03/19 09:24:56;;;;;;;;;;;;;;;;;;5090796;28;20431;-64
2023/03/19 09:27:22;;;;;;;;;;;;;;;;;;5092301;28;19904;-63
2023/03/19 09:29:48;;;;;;;;;;;;;;;;;;5092003;28;19904;-63
2023/03/19 09:32:14;;;;;;;;;;;;;;;;;;5092000;28;19915;-66
2023/03/19 09:34:40;;;;;;;;;;;;;;;;;;4721432;28;9999807;-66
2023/03/19 09:37:06;;;;;;;;;;;;;;;;;;5081717;28;19954;-64
2023/03/19 09:39:32;;;;;;;;;;;;;;;;;;5079668;28;19908;-62
2023/03/19 09:41:59;;;;;;;;;;;;;;;;;;5089015;28;20647;-64
2023/03/19 09:44:26;;;;;;;;;;;;;;;;;;5072918;28;19913;-64
2023/03/19 09:46:52;;;;;;;;;;;;;;;;;;5050834;28;19915;-64
2023/03/19 09:49:18;;;;;;;;;;;;;;;;;;5068765;28;19904;-63
2023/03/19 09:51:43;;;;;;;;;;;;;;;;;;5056028;28;19908;-64
2023/03/19 09:54:09;;;;;;;;;;;;;;;;;;5088716;28;19912;-65
2023/03/19 09:56:35;;;;;;;;;;;;;;;;;;5088702;28;19908;-64
2023/03/19 09:59:02;;;;;;;;;;;;;;;;;;5089099;28;20382;-63
2023/03/19 10:01:28;;;;;;;;;;;;;;;;;;5070619;28;19925;-63
2023/03/19 10:03:54;;;;;;;;;;;;;;;;;;5070446;28;19937;-64
2023/03/19 10:06:21;;;;;;;;;;;;;;;;;;5088518;28;19965;-64
2023/03/19 10:08:46;;;;;;;;;;;;;;;;;;5083355;28;20007;-64
2023/03/19 10:11:14;;;;;;;;;;;;;;;;;;5068827;28;20047;-64
2023/03/19 10:13:40;;;;;;;;;;;;;;;;;;5050441;28;20434;-63
2023/03/19 10:16:06;;;;;;;;;;;;;;;;;;5052013;28;19951;-63
2023/03/19 10:18:33;;;;;;;;;;;;;;;;;;5072489;28;19991;-64
2023/03/19 10:20:59;;;;;;;;;;;;;;;;;;5054835;28;19909;-62
2023/03/19 10:23:25;;;;;;;;;;;;;;;;;;5073743;28;19915;-67
2023/03/19 10:25:51;;;;;;;;;;;;;;;;;;5057607;28;20012;-68
2023/03/19 10:28:17;;;;;;;;;;;;;;;;;;5075866;28;19908;-68
2023/03/19 10:30:43;;;;;;;;;;;;;;;;;;5077119;28;19915;-67
2023/03/19 10:33:09;;;;;;;;;;;;;;;;;;5075189;28;19904;-67
2023/03/19 10:35:35;;;;;;;;;;;;;;;;;;5092566;28;19919;-67
2023/03/19 10:38:01;;;;;;;;;;;;;;;;;;5093234;28;19957;-67
2023/03/19 10:40:27;;;;;;;;;;;;;;;;;;5075009;28;19911;-67
2023/03/19 10:42:53;;;;;;;;;;;;;;;;;;5075161;28;19911;-67
2023/03/19 10:45:19;;;;;;;;;;;;;;;;;;5075203;28;19904;-67
2023/03/19 10:47:45;;;;;;;;;;;;;;;;;;5075047;28;19904;-66
2023/03/19 10:50:11;;;;;;;;;;;;;;;;;;5093525;28;19915;-67
2023/03/19 10:52:36;;;;;;;;;;;;;;;;;;5092967;28;19908;-67
2023/03/19 10:55:02;;;;;;;;;;;;;;;;;;5075911;28;19952;-67
2023/03/19 10:57:33;;;;;;;;;;;;;;;;;;5094651;28;19958;-67
2023/03/19 10:59:59;;;;;;;;;;;;;;;;;;5076928;28;19904;-68
2023/03/19 11:02:26;;;;;;;;;;;;;;;;;;5076994;28;20010;-67
2023/03/19 11:04:52;;;;;;;;;;;;;;;;;;5076404;28;19954;-66
2023/03/19 11:07:18;;;;;;;;;;;;;;;;;;5094741;28;19911;-66
2023/03/19 11:09:44;;;;;;;;;;;;;;;;;;5094679;28;19908;-68
2023/03/19 11:12:10;;;;;;;;;;;;;;;;;;5094533;28;19920;-67
2023/03/19 11:14:36;;;;;;;;;;;;;;;;;;4740485;28;10000475;-67
2023/03/19 11:17:02;;;;;;;;;;;;;;;;;;5073606;28;19983;-67
2023/03/19 11:19:28;;;;;;;;;;;;;;;;;;5091913;28;19904;-67
2023/03/19 11:21:55;;;;;;;;;;;;;;;;;;5073660;28;19908;-66
2023/03/19 11:24:20;;;;;;;;;;;;;;;;;;5090071;28;19908;-67
2023/03/19 11:26:46;;;;;;;;;;;;;;;;;;5091252;28;19911;-66
2023/03/19 11:29:12;;;;;;;;;;;;;;;;;;5091573;28;19930;-66
2023/03/19 11:31:38;;;;;;;;;;;;;;;;;;5091426;28;19908;-67
2023/03/19 11:34:05;;;;;;;;;;;;;;;;;;5073092;28;20045;-66
2023/03/19 11:36:31;;;;;;;;;;;;;;;;;;5073171;28;19915;-66
2023/03/19 11:38:57;;;;;;;;;;;;;;;;;;5073261;28;20328;-67
2023/03/19 11:41:23;;;;;;;;;;;;;;;;;;5091504;28;19904;-66
2023/03/19 11:43:49;;;;;;;;;;;;;;;;;;5081214;28;19910;-74
2023/03/19 11:46:15;;;;;;;;;;;;;;;;;;5085304;28;19911;-68
2023/03/19 11:48:40;;;;;;;;;;;;;;;;;;5091633;28;19919;-64
2023/03/19 11:51:06;;;;;;;;;;;;;;;;;;5090817;28;19908;-64
2023/03/19 11:53:32;;;;;;;;;;;;;;;;;;5088994;28;19967;-65
2023/03/19 11:55:58;;;;;;;;;;;;;;;;;;5089180;28;19912;-67
2023/03/19 11:58:24;;;;;;;;;;;;;;;;;;5072852;28;19912;-64
2023/03/19 12:00:51;;;;;;;;;;;;;;;;;;5072557;28;19904;-65
2023/03/19 12:03:16;;;;;;;;;;;;;;;;;;5090381;28;19914;-64
2023/03/19 12:05:42;;;;;;;;;;;;;;;;;;5072926;28;19908;-64
2023/03/19 12:08:09;;;;;;;;;;;;;;;;;;4732099;22;10000001;-65
2023/03/19 12:10:35;;;;;;;;;;;;;;;;;;5068700;28;19940;-60
2023/03/19 12:13:01;;;;;;;;;;;;;;;;;;5068880;28;19995;-64
2023/03/19 12:15:27;;;;;;;;;;;;;;;;;;5068843;28;20354;-63
2023/03/19 12:17:53;;;;;;;;;;;;;;;;;;5068365;28;19995;-61
2023/03/19 12:20:19;;;;;;;;;;;;;;;;;;5068774;28;19908;-64
2023/03/19 12:22:45;;;;;;;;;;;;;;;;;;5069055;28;20007;-61
2023/03/19 12:25:11;;;;;;;;;;;;;;;;;;5066803;28;19951;-67
2023/03/19 12:27:37;;;;;;;;;;;;;;;;;;5068757;28;19908;-64
2023/03/19 12:30:03;;;;;;;;;;;;;;;;;;5083931;28;20372;-60
2023/03/19 12:32:29;;;;;;;;;;;;;;;;;;5088574;28;19919;-64
2023/03/19 12:34:55;;;;;;;;;;;;;;;;;;5088596;28;19935;-57
2023/03/19 12:37:20;;;;;;;;;;;;;;;;;;5088951;28;20333;-59
2023/03/19 12:39:46;;;;;;;;;;;;;;;;;;5088022;28;19962;-63
2023/03/19 12:42:13;;;;;;;;;;;;;;;;;;5088966;28;20075;-62
2023/03/19 12:44:39;;;;;;;;;;;;;;;;;;5088585;28;19907;-63
2023/03/19 12:47:05;;;;;;;;;;;;;;;;;;5087414;28;20478;-62
2023/03/19 12:49:31;;;;;;;;;;;;;;;;;;5087446;28;19916;-61
2023/03/19 12:51:57;;;;;;;;;;;;;;;;;;5088443;28;19927;-61
2023/03/19 12:54:23;;;;;;;;;;;;;;;;;;5088435;28;19907;-63
2023/03/19 12:56:48;;;;;;;;;;;;;;;;;;5088616;28;19947;-64
2023/03/19 12:59:15;;;;;;;;;;;;;;;;;;5087360;28;19961;-67
2023/03/19 13:01:41;;;;;;;;;;;;;;;;;;5087436;28;19958;-64
2023/03/19 13:04:07;;;;;;;;;;;;;;;;;;5088192;28;19912;-63
2023/03/19 13:06:33;;;;;;;;;;;;;;;;;;5087896;28;19908;-65
2023/03/19 13:08:58;;;;;;;;;;;;;;;;;;5088443;28;20296;-62
2023/03/19 13:11:24;;;;;;;;;;;;;;;;;;5088640;28;19904;-60
2023/03/19 13:13:50;;;;;;;;;;;;;;;;;;5088544;28;19904;-60
2023/03/19 13:16:16;;;;;;;;;;;;;;;;;;5088621;28;20324;-61
2023/03/19 13:18:42;;;;;;;;;;;;;;;;;;5088185;28;20002;-60
2023/03/19 13:21:08;;;;;;;;;;;;;;;;;;5088307;28;19916;-60
2023/03/19 13:23:34;;;;;;;;;;;;;;;;;;5087888;28;20346;-58
2023/03/19 13:26:00;;;;;;;;;;;;;;;;;;5083603;28;19912;-61
2023/03/19 13:28:26;;;;;;;;;;;;;;;;;;5088085;28;19919;-63
2023/03/19 13:30:51;;;;;;;;;;;;;;;;;;5088112;28;19904;-62
2023/03/19 13:33:17;;;;;;;;;;;;;;;;;;5069847;28;20034;-62
2023/03/19 13:35:43;;;;;;;;;;;;;;;;;;5069965;28;19972;-62
2023/03/19 13:38:09;;;;;;;;;;;;;;;;;;5070427;28;19926;-59
2023/03/19 13:40:35;;;;;;;;;;;;;;;;;;5088997;28;20006;-59
2023/03/19 13:43:01;;;;;;;;;;;;;;;;;;5088372;28;19943;-63
2023/03/19 13:45:27;;;;;;;;;;;;;;;;;;5088403;28;19912;-57
2023/03/19 13:47:53;;;;;;;;;;;;;;;;;;5088149;28;19915;-62
2023/03/19 13:50:19;;;;;;;;;;;;;;;;;;5091785;28;19915;-62
2023/03/19 13:52:46;;;;;;;;;;;;;;;;;;5091945;28;20478;-62
2023/03/19 13:55:12;;;;;;;;;;;;;;;;;;5092390;28;19908;-61
2023/03/19 13:57:38;;;;;;;;;;;;;;;;;;5092243;28;19918;-58
2023/03/19 14:00:06;;;;;;;;;;;;;;;;;;5092339;28;19911;-61
2023/03/19 14:02:31;;;;;;;;;;;;;;;;;;5091951;28;19934;-61
2023/03/19 14:04:57;;;;;;;;;;;;;;;;;;5091438;28;19986;-58
2023/03/19 14:07:23;;;;;;;;;;;;;;;;;;5091505;28;19911;-61
2023/03/19 14:09:49;;;;;;;;;;;;;;;;;;5091836;28;19912;-60
2023/03/19 14:12:15;;;;;;;;;;;;;;;;;;5091629;28;19953;-56
2023/03/19 14:14:41;;;;;;;;;;;;;;;;;;5091445;28;19912;-58
2023/03/19 14:17:07;;;;;;;;;;;;;;;;;;5091561;28;19915;-61
2023/03/19 14:19:33;;;;;;;;;;;;;;;;;;5093108;28;20360;-61
2023/03/19 14:21:59;;;;;;;;;;;;;;;;;;5092750;28;19938;-59
2023/03/19 14:24:25;;;;;;;;;;;;;;;;;;5091258;28;19908;-61
2023/03/19 14:26:51;;;;;;;;;;;;;;;;;;5093794;28;20060;-59
2023/03/19 14:29:18;;;;;;;;;;;;;;;;;;5092435;28;20007;-61
2023/03/19 14:31:44;;;;;;;;;;;;;;;;;;5093654;28;19911;-60
2023/03/19 14:34:10;;;;;;;;;;;;;;;;;;5093495;28;20330;-63
2023/03/19 14:36:37;;;;;;;;;;;;;;;;;;5093710;28;19957;-60
2023/03/19 14:39:03;;;;;;;;;;;;;;;;;;5093639;28;19904;-61
2023/03/19 14:41:29;;;;;;;;;;;;;;;;;;4733811;28;9999850;-59
2023/03/19 14:43:55;;;;;;;;;;;;;;;;;;5081621;28;19911;-58
2023/03/19 14:46:21;;;;;;;;;;;;;;;;;;5089491;28;19908;-60
2023/03/19 14:48:47;;;;;;;;;;;;;;;;;;5089472;28;19919;-61
2023/03/19 14:51:13;;;;;;;;;;;;;;;;;;5089466;28;19987;-63
2023/03/19 14:53:39;;;;;;;;;;;;;;;;;;5090859;28;19908;-57
2023/03/19 14:56:05;;;;;;;;;;;;;;;;;;5090820;28;20271;-57
2023/03/19 14:58:31;;;;;;;;;;;;;;;;;;5090612;28;19914;-62
2023/03/19 15:00:57;;;;;;;;;;;;;;;;;;5090333;28;20326;-61
2023/03/19 15:03:23;;;;;;;;;;;;;;;;;;5090175;28;20307;-59
2023/03/19 15:05:49;;;;;;;;;;;;;;;;;;4738733;28;10000236;-59
2023/03/19 15:08:15;;;;;;;;;;;;;;;;;;5072295;28;19995;-54
2023/03/19 15:10:41;;;;;;;;;;;;;;;;;;5090689;28;20003;-56
2023/03/19 15:13:07;;;;;;;;;;;;;;;;;;5090547;28;19908;-60
2023/03/19 15:15:33;;;;;;;;;;;;;;;;;;5090322;28;19916;-58
2023/03/19 15:17:59;;;;;;;;;;;;;;;;;;5071887;28;19908;-55
2023/03/19 15:20:25;;;;;;;;;;;;;;;;;;5090053;28;19908;-62
2023/03/19 15:22:51;;;;;;;;;;;;;;;;;;5090338;28;19943;-56
2023/03/19 15:25:17;;;;;;;;;;;;;;;;;;5089904;28;20471;-60
2023/03/19 15:27:43;;;;;;;;;;;;;;;;;;5072014;28;20407;-60
2023/03/19 15:30:09;;;;;;;;;;;;;;;;;;5090067;28;19911;-58
2023/03/19 15:32:35;;;;;;;;;;;;;;;;;;5089843;28;19999;-64
2023/03/19 15:35:00;;;;;;;;;;;;;;;;;;5089531;28;19912;-64
2023/03/19 15:37:27;;;;;;;;;;;;;;;;;;5089866;28;20418;-60
2023/03/19 15:39:53;;;;;;;;;;;;;;;;;;5089699;28;19908;-62
2023/03/19 15:42:19;;;;;;;;;;;;;;;;;;5070995;28;19908;-62
2023/03/19 15:44:45;;;;;;;;;;;;;;;;;;5088173;28;20503;-58
2023/03/19 15:47:11;;;;;;;;;;;;;;;;;;5090039;28;20019;-62
2023/03/19 15:49:36;;;;;;;;;;;;;;;;;;5089931;28;19915;-60
2023/03/19 15:52:02;;;;;;;;;;;;;;;;;;5089965;28;19934;-60
2023/03/19 15:54:28;;;;;;;;;;;;;;;;;;5089937;28;19915;-58
2023/03/19 15:56:54;;;;;;;;;;;;;;;;;;5089349;28;19967;-60
2023/03/19 15:59:20;;;;;;;;;;;;;;;;;;5072953;28;20698;-62
2023/03/19 16:01:46;;;;;;;;;;;;;;;;;;5069845;28;19908;-63
2023/03/19 16:04:12;;;;;;;;;;;;;;;;;;5080869;28;19908;-56
2023/03/19 16:06:38;;;;;;;;;;;;;;;;;;5087648;28;19916;-62
2023/03/19 16:09:04;;;;;;;;;;;;;;;;;;5088936;28;19987;-61
2023/03/19 16:11:30;;;;;;;;;;;;;;;;;;5088704;28;19908;-59
2023/03/19 16:13:56;;;;;;;;;;;;;;;;;;5069651;28;19920;-62
2023/03/19 16:16:22;;;;;;;;;;;;;;;;;;5088378;28;19916;-61
2023/03/19 16:18:51;;;;;;;;;;;;;;;;;;5088514;28;19915;-60
2023/03/19 16:21:17;;;;;;;;;;;;;;;;;;5088771;28;19908;-61
2023/03/19 16:23:42;;;;;;;;;;;;;;;;;;5088607;28;19919;-60
2023/03/19 16:26:08;;;;;;;;;;;;;;;;;;5088839;28;19919;-61
2023/03/19 16:28:34;;;;;;;;;;;;;;;;;;5088435;28;19908;-62
2023/03/19 16:31:02;;;;;;;;;;;;;;;;;;5088320;28;19908;-61
2023/03/19 16:33:28;;;;;;;;;;;;;;;;;;5088278;28;20290;-62